createdAt,value
2022-11-08T00:01:35.172Z,96814.00
2022-11-08T00:04:08.486Z,96801.00
2022-11-08T00:06:54.703Z,96810.00
2022-11-08T00:09:39.824Z,96801.00
2022-11-08T00:12:25.905Z,96796.00
2022-11-08T00:14:53.473Z,96801.00
2022-11-08T00:17:22.586Z,96797.00
2022-11-08T00:19:49.677Z,96798.00
2022-11-08T00:22:16.904Z,96796.00
2022-11-08T00:24:44.022Z,96797.00
2022-11-08T00:27:16.297Z,96804.00
2022-11-08T00:29:43.142Z,96795.00
2022-11-08T00:32:19.926Z,96793.00
2022-11-08T00:34:48.523Z,96795.00
2022-11-08T00:37:17.789Z,96787.00
2022-11-08T00:39:44.574Z,96792.00
2022-11-08T00:42:11.626Z,96791.00
2022-11-08T00:44:38.525Z,96782.00
2022-11-08T00:47:06.110Z,96781.00
2022-11-08T00:49:32.964Z,96778.00
2022-11-08T00:51:59.734Z,96787.00
2022-11-08T00:54:26.474Z,96781.00
2022-11-08T00:56:53.210Z,96780.00
2022-11-08T00:59:20.468Z,96775.00
2022-11-08T01:01:48.141Z,96774.00
2022-11-08T01:04:18.877Z,96779.00
2022-11-08T01:06:45.969Z,96760.00
2022-11-08T01:09:13.015Z,96759.00
2022-11-08T01:11:40.117Z,96762.00
2022-11-08T01:14:07.551Z,96753.00
2022-11-08T01:16:34.866Z,96752.00
2022-11-08T01:19:02.432Z,96749.00
2022-11-08T01:21:29.562Z,96746.00
2022-11-08T01:23:56.515Z,96732.00
2022-11-08T01:26:29.342Z,96731.00
2022-11-08T01:28:57.545Z,96724.00
2022-11-08T01:31:31.217Z,96720.00
2022-11-08T01:33:59.172Z,96717.00
2022-11-08T01:36:28.242Z,96716.00
2022-11-08T01:38:56.664Z,96716.00
2022-11-08T01:41:26.030Z,96718.00
2022-11-08T01:43:56.160Z,96716.00
2022-11-08T01:46:33.111Z,96709.00
2022-11-08T01:49:11.671Z,96710.00
2022-11-08T01:51:44.872Z,96702.00
2022-11-08T01:54:19.266Z,96700.00
2022-11-08T01:56:46.339Z,96697.00
2022-11-08T01:59:15.757Z,96692.00
2022-11-08T02:01:44.016Z,96686.00
2022-11-08T02:04:12.642Z,96681.00
2022-11-08T02:06:40.501Z,96681.00
2022-11-08T02:09:11.086Z,96683.00
2022-11-08T02:11:39.566Z,96680.00
2022-11-08T02:14:07.303Z,96673.00
2022-11-08T02:16:34.039Z,96677.00
2022-11-08T02:19:00.877Z,96679.00
2022-11-08T02:21:37.285Z,96673.00
2022-11-08T02:24:09.869Z,96683.00
2022-11-08T02:26:37.585Z,96690.00
2022-11-08T02:29:28.084Z,96690.00
2022-11-08T02:31:55.522Z,96682.00
2022-11-08T02:34:34.655Z,96687.00
2022-11-08T02:37:03.466Z,96687.00
2022-11-08T02:39:30.589Z,96688.00
2022-11-08T02:41:57.330Z,96690.00
2022-11-08T02:44:24.064Z,96692.00
2022-11-08T02:46:50.820Z,96684.00
2022-11-08T02:49:17.558Z,96690.00
2022-11-08T02:51:44.293Z,96692.00
2022-11-08T02:54:11.038Z,96690.00
2022-11-08T02:56:38.003Z,96700.00
2022-11-08T02:59:06.069Z,96699.00
2022-11-08T03:01:32.994Z,96685.00
2022-11-08T03:04:00.077Z,96680.00
2022-11-08T03:06:26.850Z,96684.00
2022-11-08T03:08:53.646Z,96687.00
2022-11-08T03:11:20.505Z,96681.00
2022-11-08T03:13:47.264Z,96681.00
2022-11-08T03:16:14.018Z,96673.00
2022-11-08T03:18:40.746Z,96680.00
2022-11-08T03:21:07.482Z,96679.00
2022-11-08T03:23:34.257Z,96679.00
2022-11-08T03:26:02.858Z,96664.00
2022-11-08T03:28:30.081Z,96671.00
2022-11-08T03:30:57.222Z,96674.00
2022-11-08T03:33:24.447Z,96673.00
2022-11-08T03:35:51.582Z,96675.00
2022-11-08T03:38:18.821Z,96668.00
2022-11-08T03:40:46.478Z,96675.00
2022-11-08T03:43:13.652Z,96664.00
2022-11-08T03:45:40.390Z,96667.00
2022-11-08T03:48:07.555Z,96671.00
2022-11-08T03:50:34.337Z,96663.00
2022-11-08T03:53:01.068Z,96656.00
2022-11-08T03:55:28.648Z,96655.00
2022-11-08T03:57:56.384Z,96649.00
2022-11-08T04:00:29.051Z,96651.00
2022-11-08T04:03:03.001Z,96660.00
2022-11-08T04:05:32.170Z,96649.00
2022-11-08T04:08:01.044Z,96654.00
2022-11-08T04:10:27.882Z,96661.00
2022-11-08T04:13:13.000Z,96652.00
2022-11-08T04:15:40.112Z,96646.00
2022-11-08T04:18:25.161Z,96642.00
2022-11-08T04:21:12.735Z,96641.00
2022-11-08T04:23:40.201Z,96635.00
2022-11-08T04:26:14.260Z,96632.00
2022-11-08T04:28:43.976Z,96626.00
2022-11-08T04:31:19.795Z,96627.00
2022-11-08T04:33:48.048Z,96629.00
2022-11-08T04:36:19.024Z,96635.00
2022-11-08T04:38:55.982Z,96640.00
2022-11-08T04:41:32.165Z,96627.00
2022-11-08T04:43:59.551Z,96625.00
2022-11-08T04:46:29.153Z,96637.00
2022-11-08T04:48:58.661Z,96644.00
2022-11-08T04:51:46.933Z,96637.00
2022-11-08T04:54:34.181Z,96625.00
2022-11-08T04:57:30.847Z,96618.00
2022-11-08T04:59:57.566Z,96622.00
2022-11-08T05:02:24.480Z,96616.00
2022-11-08T05:04:51.282Z,96631.00
2022-11-08T05:07:18.167Z,96639.00
2022-11-08T05:09:44.908Z,96641.00
2022-11-08T05:12:11.655Z,96640.00
2022-11-08T05:14:38.862Z,96632.00
2022-11-08T05:17:05.631Z,96633.00
2022-11-08T05:19:50.917Z,96629.00
2022-11-08T05:22:36.231Z,96625.00
2022-11-08T05:25:02.987Z,96619.00
2022-11-08T05:27:29.743Z,96620.00
2022-11-08T05:29:56.499Z,96618.00
2022-11-08T05:32:23.294Z,96623.00
2022-11-08T05:34:50.004Z,96627.00
2022-11-08T05:37:16.795Z,96626.00
2022-11-08T05:39:43.531Z,96621.00
2022-11-08T05:42:10.811Z,96621.00
2022-11-08T05:44:37.538Z,96623.00
2022-11-08T05:47:04.356Z,96628.00
2022-11-08T05:49:31.083Z,96620.00
2022-11-08T05:51:58.080Z,96614.00
2022-11-08T05:54:24.803Z,96608.00
2022-11-08T05:56:51.547Z,96605.00
2022-11-08T05:59:18.266Z,96591.00
2022-11-08T06:01:45.055Z,96582.00
2022-11-08T06:04:11.864Z,96582.00
2022-11-08T06:06:38.614Z,96589.00
2022-11-08T06:09:05.407Z,96588.00
2022-11-08T06:11:32.150Z,96587.00
2022-11-08T06:13:58.905Z,96603.00
2022-11-08T06:16:26.092Z,96589.00
2022-11-08T06:18:53.102Z,96578.00
2022-11-08T06:21:21.344Z,96578.00
2022-11-08T06:23:48.295Z,96597.00
2022-11-08T06:26:15.202Z,96604.00
2022-11-08T06:28:41.958Z,96605.00
2022-11-08T06:31:08.863Z,96612.00
2022-11-08T06:33:35.801Z,96626.00
2022-11-08T06:36:02.541Z,96631.00
2022-11-08T06:38:29.895Z,96626.00
2022-11-08T06:41:00.295Z,96634.00
2022-11-08T06:43:27.222Z,96635.00
2022-11-08T06:45:54.533Z,96632.00
2022-11-08T06:48:21.266Z,96643.00
2022-11-08T06:50:48.424Z,96637.00
2022-11-08T06:53:15.598Z,96650.00
2022-11-08T06:55:42.609Z,96651.00
2022-11-08T06:58:11.111Z,96655.00
2022-11-08T07:00:38.008Z,96659.00
2022-11-08T07:03:04.869Z,96663.00
2022-11-08T07:05:34.606Z,96660.00
2022-11-08T07:08:04.575Z,96660.00
2022-11-08T07:10:32.923Z,96659.00
2022-11-08T07:13:10.253Z,96654.00
2022-11-08T07:15:37.736Z,96648.00
2022-11-08T07:18:13.542Z,96645.00
2022-11-08T07:20:41.331Z,96655.00
2022-11-08T07:23:10.288Z,96656.00
2022-11-08T07:25:37.463Z,96651.00
2022-11-08T07:28:07.819Z,96648.00
2022-11-08T07:30:35.541Z,96652.00
2022-11-08T07:33:02.400Z,96657.00
2022-11-08T07:35:29.301Z,96654.00
2022-11-08T07:37:56.698Z,96648.00
2022-11-08T07:40:23.760Z,96655.00
2022-11-08T07:43:10.721Z,96657.00
2022-11-08T07:45:37.479Z,96650.00
2022-11-08T07:48:12.082Z,96658.00
2022-11-08T07:50:41.566Z,96655.00
2022-11-08T07:53:08.964Z,96640.00
2022-11-08T07:55:37.508Z,96647.00
2022-11-08T07:58:05.456Z,96656.00
2022-11-08T08:00:36.547Z,96650.00
2022-11-08T08:03:05.984Z,96651.00
2022-11-08T08:05:42.255Z,96647.00
2022-11-08T08:08:10.663Z,96647.00
2022-11-08T08:10:38.201Z,96654.00
2022-11-08T08:13:06.258Z,96658.00
2022-11-08T08:15:33.677Z,96645.00
2022-11-08T08:18:04.858Z,96660.00
2022-11-08T08:20:32.637Z,96666.00
2022-11-08T08:23:00.709Z,96649.00
2022-11-08T08:25:30.825Z,96666.00
2022-11-08T08:28:00.698Z,96664.00
2022-11-08T08:30:30.131Z,96673.00
2022-11-08T08:33:28.023Z,96671.00
2022-11-08T08:35:56.299Z,96669.00
2022-11-08T08:38:23.086Z,96679.00
2022-11-08T08:40:50.775Z,96681.00
2022-11-08T08:43:18.009Z,96692.00
2022-11-08T08:45:44.979Z,96701.00
2022-11-08T08:48:11.720Z,96696.00
2022-11-08T08:50:38.546Z,96696.00
2022-11-08T08:53:06.369Z,96707.00
2022-11-08T08:55:36.639Z,96699.00
2022-11-08T08:58:03.598Z,96708.00
2022-11-08T09:03:17.627Z,96712.00
2022-11-08T09:05:46.556Z,96718.00
2022-11-08T09:08:15.008Z,96724.00
2022-11-08T09:10:42.043Z,96721.00
2022-11-08T09:13:08.975Z,96717.00
2022-11-08T09:15:35.843Z,96719.00
2022-11-08T09:18:03.019Z,96727.00
2022-11-08T09:20:29.804Z,96732.00
2022-11-08T09:23:01.435Z,96719.00
2022-11-08T09:25:28.178Z,96716.00
2022-11-08T09:27:55.678Z,96709.00
2022-11-08T09:30:38.205Z,96709.00
2022-11-08T09:33:12.114Z,96711.00
2022-11-08T09:35:56.715Z,96720.00
2022-11-08T09:39:12.270Z,96707.00
2022-11-08T09:42:39.133Z,96708.00
2022-11-08T09:46:07.272Z,96700.00
2022-11-08T09:49:13.830Z,96700.00
2022-11-08T09:52:07.233Z,96706.00
2022-11-08T09:55:38.393Z,96704.00
2022-11-08T09:59:42.620Z,96717.00
2022-11-08T10:02:50.831Z,96718.00
2022-11-08T10:05:52.281Z,96724.00
2022-11-08T10:08:33.212Z,96725.00
2022-11-08T10:11:19.555Z,96724.00
2022-11-08T10:13:55.297Z,96725.00
2022-11-08T10:16:51.944Z,96722.00
2022-11-08T10:19:53.077Z,96714.00
2022-11-08T10:22:49.606Z,96720.00
2022-11-08T10:25:38.855Z,96718.00
2022-11-08T10:28:07.758Z,96726.00
2022-11-08T10:30:39.486Z,96721.00
2022-11-08T10:33:23.789Z,96713.00
2022-11-08T10:36:07.289Z,96716.00
2022-11-08T10:38:42.692Z,96708.00
2022-11-08T10:41:31.780Z,96706.00
2022-11-08T10:44:15.238Z,96715.00
2022-11-08T10:47:02.114Z,96707.00
2022-11-08T10:49:41.800Z,96699.00
2022-11-08T10:52:11.674Z,96701.00
2022-11-08T10:54:53.193Z,96702.00
2022-11-08T10:57:31.487Z,96693.00
2022-11-08T11:00:21.136Z,96698.00
2022-11-08T11:03:09.962Z,96693.00
2022-11-08T11:05:58.877Z,96686.00
2022-11-08T11:08:26.378Z,96684.00
2022-11-08T11:10:53.386Z,96685.00
2022-11-08T11:16:04.707Z,96689.00
2022-11-08T11:18:35.924Z,96687.00
2022-11-08T11:21:36.162Z,96691.00
2022-11-08T11:24:19.488Z,96686.00
2022-11-08T11:26:56.578Z,96688.00
2022-11-08T11:29:32.582Z,96681.00
2022-11-08T11:32:35.146Z,96685.00
2022-11-08T11:35:05.979Z,96684.00
2022-11-08T11:37:54.558Z,96681.00
2022-11-08T11:40:37.251Z,96672.00
2022-11-08T11:43:42.934Z,96671.00
2022-11-08T11:46:19.865Z,96664.00
2022-11-08T11:48:53.710Z,96659.00
2022-11-08T11:51:21.261Z,96657.00
2022-11-08T11:53:49.100Z,96665.00
2022-11-08T11:56:41.058Z,96654.00
2022-11-08T11:59:40.910Z,96655.00
2022-11-08T12:02:54.208Z,96652.00
2022-11-08T12:05:59.681Z,96643.00
2022-11-08T12:08:55.983Z,96643.00
2022-11-08T12:11:55.998Z,96634.00
2022-11-08T12:15:23.067Z,96630.00
2022-11-08T12:18:10.342Z,96632.00
2022-11-08T12:20:45.992Z,96625.00
2022-11-08T12:23:53.196Z,96621.00
2022-11-08T12:26:26.613Z,96626.00
2022-11-08T12:29:19.985Z,96628.00
2022-11-08T12:32:26.618Z,96626.00
2022-11-08T12:35:32.431Z,96618.00
2022-11-08T12:38:42.497Z,96610.00
2022-11-08T12:41:47.945Z,96611.00
2022-11-08T12:44:48.675Z,96603.00
2022-11-08T12:47:30.962Z,96596.00
2022-11-08T12:50:37.875Z,96595.00
2022-11-08T12:53:40.053Z,96603.00
2022-11-08T12:56:15.449Z,96592.00
2022-11-08T12:58:46.525Z,96590.00
2022-11-08T13:01:18.985Z,96603.00
2022-11-08T13:04:05.680Z,96598.00
2022-11-08T13:06:46.741Z,96585.00
2022-11-08T13:09:36.069Z,96591.00
2022-11-08T13:12:52.052Z,96593.00
2022-11-08T13:15:26.069Z,96594.00
2022-11-08T13:18:23.465Z,96587.00
2022-11-08T13:20:50.419Z,96586.00
2022-11-08T13:23:31.565Z,96580.00
2022-11-08T13:26:18.918Z,96581.00
2022-11-08T13:28:46.966Z,96578.00
2022-11-08T13:31:22.322Z,96582.00
2022-11-08T13:34:10.513Z,96571.00
2022-11-08T13:37:05.249Z,96576.00
2022-11-08T13:39:48.531Z,96568.00
2022-11-08T13:42:18.193Z,96569.00
2022-11-08T13:45:18.393Z,96570.00
2022-11-08T13:47:47.875Z,96569.00
2022-11-08T13:50:31.228Z,96572.00
2022-11-08T13:53:03.951Z,96578.00
2022-11-08T13:55:42.512Z,96565.00
2022-11-08T13:58:35.227Z,96572.00
2022-11-08T14:01:27.261Z,96576.00
2022-11-08T14:03:57.170Z,96566.00
2022-11-08T14:06:44.405Z,96561.00
2022-11-08T14:09:43.891Z,96557.00
2022-11-08T14:12:31.743Z,96569.00
2022-11-08T14:15:33.448Z,96561.00
2022-11-08T14:18:17.610Z,96554.00
2022-11-08T14:20:47.166Z,96557.00
2022-11-08T14:23:20.263Z,96555.00
2022-11-08T14:25:55.428Z,96549.00
2022-11-08T14:28:43.801Z,96549.00
2022-11-08T14:31:33.053Z,96544.00
2022-11-08T14:34:01.154Z,96545.00
2022-11-08T14:36:30.659Z,96541.00
2022-11-08T14:39:17.392Z,96546.00
2022-11-08T14:41:53.156Z,96539.00
2022-11-08T14:44:20.097Z,96551.00
2022-11-08T14:46:48.121Z,96551.00
2022-11-08T14:49:15.540Z,96555.00
2022-11-08T14:51:43.479Z,96550.00
2022-11-08T14:54:27.151Z,96559.00
2022-11-08T14:56:55.829Z,96547.00
2022-11-08T14:59:24.711Z,96552.00
2022-11-08T15:01:51.596Z,96554.00
2022-11-08T15:04:21.826Z,96554.00
2022-11-08T15:06:59.872Z,96548.00
2022-11-08T15:09:33.671Z,96540.00
2022-11-08T15:12:04.537Z,96547.00
2022-11-08T15:14:35.927Z,96543.00
2022-11-08T15:17:03.863Z,96553.00
2022-11-08T15:19:44.390Z,96547.00
2022-11-08T15:22:36.367Z,96536.00
2022-11-08T15:25:35.312Z,96537.00
2022-11-08T15:28:25.879Z,96534.00
2022-11-08T15:31:01.093Z,96531.00
2022-11-08T15:33:40.753Z,96539.00
2022-11-08T15:36:16.120Z,96539.00
2022-11-08T15:38:47.881Z,96534.00
2022-11-08T15:41:38.415Z,96535.00
2022-11-08T15:44:25.697Z,96533.00
2022-11-08T15:46:54.389Z,96538.00
2022-11-08T15:49:25.454Z,96540.00
2022-11-08T15:51:54.530Z,96537.00
2022-11-08T15:54:23.869Z,96535.00
2022-11-08T15:56:52.786Z,96538.00
2022-11-08T15:59:30.724Z,96537.00
2022-11-08T16:02:00.745Z,96531.00
2022-11-08T16:04:29.347Z,96528.00
2022-11-08T16:06:57.517Z,96531.00
2022-11-08T16:09:24.408Z,96532.00
2022-11-08T16:11:51.478Z,96537.00
2022-11-08T16:14:22.158Z,96535.00
2022-11-08T16:16:49.320Z,96538.00
2022-11-08T16:19:23.453Z,96545.00
2022-11-08T16:21:51.792Z,96547.00
2022-11-08T16:24:19.163Z,96542.00
2022-11-08T16:26:46.866Z,96548.00
2022-11-08T16:29:22.717Z,96545.00
2022-11-08T16:31:51.092Z,96550.00
2022-11-08T16:34:18.789Z,96544.00
2022-11-08T16:36:47.459Z,96545.00
2022-11-08T16:39:21.488Z,96549.00
2022-11-08T16:41:48.358Z,96551.00
2022-11-08T16:44:15.564Z,96544.00
2022-11-08T16:46:42.472Z,96540.00
2022-11-08T16:49:20.874Z,96537.00
2022-11-08T16:51:49.009Z,96537.00
2022-11-08T16:54:23.980Z,96535.00
2022-11-08T16:56:51.771Z,96530.00
2022-11-08T16:59:18.626Z,96531.00
2022-11-08T17:01:45.845Z,96531.00
2022-11-08T17:04:12.600Z,96530.00
2022-11-08T17:06:39.604Z,96526.00
2022-11-08T17:09:07.165Z,96535.00
2022-11-08T17:11:34.012Z,96529.00
2022-11-08T17:14:02.057Z,96537.00
2022-11-08T17:16:29.246Z,96539.00
2022-11-08T17:18:57.570Z,96547.00
2022-11-08T17:24:13.593Z,96542.00
2022-11-08T17:26:42.564Z,96546.00
2022-11-08T17:29:09.330Z,96542.00
2022-11-08T17:31:36.246Z,96551.00
2022-11-08T17:34:02.975Z,96551.00
2022-11-08T17:36:29.733Z,96562.00
2022-11-08T17:38:56.490Z,96563.00
2022-11-08T17:41:23.263Z,96569.00
2022-11-08T17:43:50.673Z,96566.00
2022-11-08T17:46:17.474Z,96562.00
2022-11-08T17:48:44.191Z,96563.00
2022-11-08T17:51:13.028Z,96567.00
2022-11-08T17:53:39.844Z,96560.00
2022-11-08T17:56:07.151Z,96555.00
2022-11-08T17:58:34.580Z,96554.00
2022-11-08T18:01:04.540Z,96563.00
2022-11-08T18:03:31.917Z,96564.00
2022-11-08T18:06:00.453Z,96559.00
2022-11-08T18:11:39.983Z,96565.00
2022-11-08T18:14:06.758Z,96565.00
2022-11-08T18:16:34.300Z,96560.00
2022-11-08T18:19:01.072Z,96557.00
2022-11-08T18:21:27.948Z,96549.00
2022-11-08T18:23:54.791Z,96546.00
2022-11-08T18:26:21.830Z,96553.00
2022-11-08T18:28:48.629Z,96558.00
2022-11-08T18:31:18.279Z,96563.00
2022-11-08T18:33:45.933Z,96563.00
2022-11-08T18:36:25.039Z,96556.00
2022-11-08T18:38:52.612Z,96554.00
2022-11-08T18:41:25.570Z,96560.00
2022-11-08T18:43:52.537Z,96557.00
2022-11-08T18:46:22.661Z,96561.00
2022-11-08T18:48:50.468Z,96555.00
2022-11-08T18:51:20.135Z,96558.00
2022-11-08T18:53:47.238Z,96558.00
2022-11-08T18:56:14.721Z,96554.00
2022-11-08T18:58:42.790Z,96567.00
2022-11-08T19:01:09.647Z,96561.00
2022-11-08T19:03:36.795Z,96560.00
2022-11-08T19:06:03.792Z,96558.00
2022-11-08T19:08:31.219Z,96560.00
2022-11-08T19:11:01.255Z,96563.00
2022-11-08T19:13:31.549Z,96559.00
2022-11-08T19:16:04.641Z,96560.00
2022-11-08T19:18:33.225Z,96560.00
2022-11-08T19:21:47.862Z,96546.00
2022-11-08T19:24:31.451Z,96553.00
2022-11-08T19:27:28.845Z,96557.00
2022-11-08T19:30:28.365Z,96548.00
2022-11-08T19:33:28.360Z,96540.00
2022-11-08T19:36:29.018Z,96542.00
2022-11-08T19:38:58.647Z,96554.00
2022-11-08T19:41:47.701Z,96549.00
2022-11-08T19:44:15.269Z,96542.00
2022-11-08T19:46:43.089Z,96545.00
2022-11-08T19:49:10.205Z,96546.00
2022-11-08T19:51:41.810Z,96555.00
2022-11-08T19:54:12.973Z,96548.00
2022-11-08T19:59:26.414Z,96544.00
2022-11-08T20:01:53.494Z,96548.00
2022-11-08T20:04:20.447Z,96548.00
2022-11-08T20:06:47.394Z,96555.00
2022-11-08T20:09:14.479Z,96561.00
2022-11-08T20:11:42.108Z,96566.00
2022-11-08T20:14:11.644Z,96561.00
2022-11-08T20:16:41.932Z,96563.00
2022-11-08T20:19:16.645Z,96562.00
2022-11-08T20:21:45.960Z,96564.00
2022-11-08T20:24:14.328Z,96557.00
2022-11-08T20:26:42.511Z,96563.00
2022-11-08T20:29:09.701Z,96561.00
2022-11-08T20:31:37.106Z,96560.00
2022-11-08T20:34:10.267Z,96565.00
2022-11-08T20:36:37.836Z,96569.00
2022-11-08T20:39:26.532Z,96560.00
2022-11-08T20:42:05.809Z,96553.00
2022-11-08T20:45:24.269Z,96558.00
2022-11-08T20:48:23.375Z,96561.00
2022-11-08T20:51:22.812Z,96561.00
2022-11-08T20:54:22.959Z,96555.00
2022-11-08T20:57:23.500Z,96565.00
2022-11-08T20:59:50.230Z,96565.00
2022-11-08T21:02:17.042Z,96564.00
2022-11-08T21:04:43.806Z,96567.00
2022-11-08T21:10:19.717Z,96575.00
2022-11-08T21:12:44.102Z,96575.00
2022-11-08T21:15:11.153Z,96569.00
2022-11-08T21:17:37.879Z,96569.00
2022-11-08T21:20:05.129Z,96568.00
2022-11-08T21:22:31.851Z,96570.00
2022-11-08T21:24:58.627Z,96575.00
2022-11-08T21:27:29.604Z,96577.00
2022-11-08T21:29:56.733Z,96574.00
2022-11-08T21:32:23.630Z,96567.00
2022-11-08T21:34:50.345Z,96570.00
2022-11-08T21:37:17.135Z,96576.00
2022-11-08T21:39:43.985Z,96563.00
2022-11-08T21:42:10.845Z,96572.00
2022-11-08T21:44:37.638Z,96572.00
2022-11-08T21:47:04.475Z,96573.00
2022-11-08T21:49:31.221Z,96570.00
2022-11-08T21:51:58.013Z,96573.00
2022-11-08T21:54:24.781Z,96579.00
2022-11-08T21:56:51.594Z,96568.00
2022-11-08T21:59:18.360Z,96566.00
2022-11-08T22:01:45.165Z,96564.00
2022-11-08T22:04:11.897Z,96566.00
2022-11-08T22:06:40.583Z,96563.00
2022-11-08T22:09:10.395Z,96561.00
2022-11-08T22:11:37.282Z,96562.00
2022-11-08T22:14:04.239Z,96560.00
2022-11-08T22:16:31.009Z,96565.00
2022-11-08T22:19:04.688Z,96565.00
2022-11-08T22:21:41.578Z,96562.00
2022-11-08T22:24:19.886Z,96556.00
2022-11-08T22:26:50.998Z,96554.00
2022-11-08T22:29:26.552Z,96552.00
2022-11-08T22:32:07.950Z,96552.00
2022-11-08T22:34:46.818Z,96546.00
2022-11-08T22:37:28.055Z,96544.00
2022-11-08T22:40:24.095Z,96545.00
2022-11-08T22:46:08.160Z,96544.00
2022-11-08T22:48:35.052Z,96545.00
2022-11-08T22:51:02.636Z,96541.00
2022-11-08T22:53:29.835Z,96548.00
2022-11-08T22:55:56.979Z,96553.00
2022-11-08T22:58:23.806Z,96551.00
2022-11-08T23:00:50.663Z,96544.00
2022-11-08T23:03:17.646Z,96548.00
2022-11-08T23:05:56.804Z,96552.00
2022-11-08T23:08:26.355Z,96560.00
2022-11-08T23:11:12.034Z,96559.00
2022-11-08T23:13:57.816Z,96558.00
2022-11-08T23:16:40.257Z,96563.00
2022-11-08T23:19:31.622Z,96564.00
2022-11-08T23:22:17.372Z,96564.00
2022-11-08T23:24:44.889Z,96559.00
2022-11-08T23:27:32.801Z,96560.00
2022-11-08T23:30:17.846Z,96552.00
2022-11-08T23:32:48.306Z,96560.00
2022-11-08T23:35:16.654Z,96559.00
2022-11-08T23:37:44.059Z,96559.00
2022-11-08T23:40:32.648Z,96550.00
2022-11-08T23:43:35.568Z,96542.00
2022-11-08T23:46:12.722Z,96555.00
2022-11-08T23:48:40.819Z,96558.00
2022-11-08T23:51:08.105Z,96554.00
2022-11-08T23:53:39.904Z,96557.00
2022-11-08T23:56:07.258Z,96558.00
2022-11-08T23:58:34.204Z,96548.00
